createdAt,value
2019-04-04T00:00:50.513Z,22.10
2019-04-04T00:03:19.074Z,21.60
2019-04-04T00:05:48.330Z,25.73
2019-04-04T00:08:16.186Z,28.27
2019-04-04T00:10:44.066Z,23.43
2019-04-04T00:13:12.504Z,23.20
2019-04-04T00:15:40.289Z,25.93
2019-04-04T00:18:08.439Z,22.50
2019-04-04T00:20:37.018Z,24.73
2019-04-04T00:23:06.827Z,29.67
2019-04-04T00:27:58.365Z,30.33
2019-04-04T00:30:26.224Z,24.40
2019-04-04T00:32:54.705Z,22.87
2019-04-04T00:35:22.573Z,24.97
2019-04-04T00:37:50.428Z,21.47
2019-04-04T00:40:18.580Z,23.70
2019-04-04T00:42:47.823Z,26.07
2019-04-04T00:45:15.905Z,24.97
2019-04-04T00:47:43.626Z,26.33
2019-04-04T00:50:11.577Z,22.63
2019-04-04T00:52:41.363Z,24.33
2019-04-04T00:55:09.941Z,23.73
2019-04-04T00:57:37.598Z,22.07
2019-04-04T01:00:10.863Z,27.80
2019-04-04T01:02:38.550Z,21.47
2019-04-04T01:05:06.821Z,20.47
2019-04-04T01:07:35.811Z,26.47
2019-04-04T01:10:05.134Z,24.00
2019-04-04T01:12:32.808Z,21.70
2019-04-04T01:15:00.742Z,23.87
2019-04-04T01:17:28.593Z,21.80
2019-04-04T01:19:57.039Z,20.70
2019-04-04T01:22:25.597Z,23.37
2019-04-04T01:24:54.172Z,24.13
2019-04-04T01:27:23.305Z,26.30
2019-04-04T01:29:51.132Z,26.07
2019-04-04T01:32:19.191Z,26.07
2019-04-04T01:34:47.040Z,27.23
2019-04-04T01:37:14.794Z,26.87
2019-04-04T01:39:42.442Z,22.07
2019-04-04T01:42:10.255Z,26.40
2019-04-04T01:44:38.113Z,24.07
2019-04-04T01:47:06.038Z,21.00
2019-04-04T01:49:33.916Z,20.17
2019-04-04T01:52:01.891Z,19.17
2019-04-04T01:54:32.167Z,23.93
2019-04-04T01:57:00.808Z,34.07
2019-04-04T01:59:28.733Z,24.30
2019-04-04T02:02:00.243Z,28.03
2019-04-04T02:04:28.961Z,22.37
2019-04-04T02:06:58.878Z,27.70
2019-04-04T02:09:26.744Z,27.63
2019-04-04T02:11:54.536Z,27.10
2019-04-04T02:14:22.362Z,23.27
2019-04-04T02:16:51.581Z,23.13
2019-04-04T02:19:19.941Z,21.80
2019-04-04T02:21:47.827Z,22.90
2019-04-04T02:24:15.771Z,21.40
2019-04-04T02:26:43.616Z,21.93
2019-04-04T02:29:11.667Z,31.90
2019-04-04T02:31:44.142Z,26.23
2019-04-04T02:34:12.153Z,24.93
2019-04-04T02:36:40.060Z,32.10
2019-04-04T02:39:12.886Z,21.83
2019-04-04T02:41:40.760Z,22.83
2019-04-04T02:44:08.808Z,24.10
2019-04-04T02:46:36.761Z,28.47
2019-04-04T02:49:04.975Z,29.90
2019-04-04T02:51:32.960Z,24.97
2019-04-04T02:54:01.815Z,30.60
2019-04-04T02:56:29.806Z,25.77
2019-04-04T02:58:57.746Z,24.50
2019-04-04T03:01:25.716Z,29.73
2019-04-04T03:03:53.728Z,23.23
2019-04-04T03:06:24.481Z,22.60
2019-04-04T03:08:51.880Z,27.43
2019-04-04T03:11:22.164Z,20.43
2019-04-04T03:13:49.688Z,28.67
2019-04-04T03:16:20.999Z,21.43
2019-04-04T03:18:47.420Z,22.30
2019-04-04T03:21:15.457Z,23.13
2019-04-04T03:23:44.139Z,29.37
2019-04-04T03:26:11.957Z,24.93
2019-04-04T03:28:39.890Z,21.57
2019-04-04T03:31:07.809Z,22.30
2019-04-04T03:33:35.742Z,20.50
2019-04-04T03:36:03.832Z,22.97
2019-04-04T03:38:31.714Z,21.83
2019-04-04T03:40:59.656Z,19.83
2019-04-04T03:43:27.676Z,23.40
2019-04-04T03:46:00.346Z,16.93
2019-04-04T03:48:25.305Z,21.67
2019-04-04T03:50:56.850Z,21.47
2019-04-04T03:53:23.473Z,19.13
2019-04-04T03:55:51.368Z,21.73
2019-04-04T03:58:19.602Z,20.60
2019-04-04T04:00:47.392Z,19.77
2019-04-04T04:03:15.445Z,19.03
2019-04-04T04:05:43.212Z,25.37
2019-04-04T04:08:11.049Z,22.43
2019-04-04T04:10:38.831Z,24.47
2019-04-04T04:13:07.990Z,20.83
2019-04-04T04:15:36.505Z,21.57
2019-04-04T04:18:04.664Z,21.10
2019-04-04T04:20:36.098Z,21.13
2019-04-04T04:23:02.902Z,24.77
2019-04-04T04:25:35.305Z,16.67
2019-04-04T04:28:02.954Z,18.70
2019-04-04T04:30:30.451Z,23.50
2019-04-04T04:32:58.302Z,20.33
2019-04-04T04:35:26.228Z,21.50
2019-04-04T04:38:02.639Z,16.93
2019-04-04T04:40:30.428Z,21.07
2019-04-04T04:43:00.756Z,23.70
2019-04-04T04:45:28.028Z,20.53
2019-04-04T04:47:57.057Z,21.70
2019-04-04T04:50:25.260Z,22.57
2019-04-04T04:52:53.196Z,21.20
2019-04-04T04:55:21.666Z,21.90
2019-04-04T04:57:49.636Z,29.90
2019-04-04T05:00:17.674Z,20.60
2019-04-04T05:02:45.545Z,17.07
2019-04-04T05:05:13.584Z,21.60
2019-04-04T05:07:41.458Z,19.40
2019-04-04T05:10:09.506Z,19.70
2019-04-04T05:12:37.976Z,24.03
2019-04-04T05:15:06.168Z,24.90
2019-04-04T05:17:34.009Z,22.77
2019-04-04T05:20:03.837Z,25.20
2019-04-04T05:22:32.344Z,19.20
2019-04-04T05:25:07.945Z,16.57
2019-04-04T05:27:30.098Z,24.73
2019-04-04T05:29:57.985Z,18.83
2019-04-04T05:32:25.780Z,17.90
2019-04-04T05:34:53.766Z,22.57
2019-04-04T05:37:21.741Z,19.40
2019-04-04T05:39:55.151Z,16.27
2019-04-04T05:42:22.168Z,16.77
2019-04-04T05:44:50.102Z,19.00
2019-04-04T05:47:17.988Z,21.93
2019-04-04T05:49:45.813Z,19.73
2019-04-04T05:52:13.664Z,19.57
2019-04-04T05:54:41.522Z,18.97
2019-04-04T05:57:12.175Z,16.07
2019-04-04T05:59:42.470Z,17.50
2019-04-04T06:02:11.546Z,17.27
2019-04-04T06:04:40.075Z,17.27
2019-04-04T06:07:08.134Z,21.70
2019-04-04T06:09:36.281Z,16.93
2019-04-04T06:12:04.283Z,16.27
2019-04-04T06:14:33.487Z,15.47
2019-04-04T06:17:05.144Z,19.10
2019-04-04T06:19:33.362Z,16.80
2019-04-04T06:22:01.325Z,15.07
2019-04-04T06:24:29.787Z,13.03
2019-04-04T06:26:57.888Z,17.93
2019-04-04T06:29:25.873Z,14.70
2019-04-04T06:31:53.906Z,15.93
2019-04-04T06:34:24.029Z,14.67
2019-04-04T06:36:52.264Z,14.43
2019-04-04T06:39:20.273Z,13.17
2019-04-04T06:41:48.506Z,15.13
2019-04-04T06:44:16.617Z,14.27
2019-04-04T06:46:44.547Z,18.77
2019-04-04T06:49:12.374Z,16.23
2019-04-04T06:51:40.336Z,15.60
2019-04-04T06:54:08.167Z,16.00
2019-04-04T06:56:36.312Z,13.87
2019-04-04T06:59:04.398Z,15.20
2019-04-04T07:01:32.385Z,17.47
2019-04-04T07:04:00.440Z,11.87
2019-04-04T07:06:28.433Z,12.87
2019-04-04T07:08:56.358Z,17.00
2019-04-04T07:11:24.184Z,15.57
2019-04-04T07:13:52.438Z,14.80
2019-04-04T07:16:20.235Z,15.90
2019-04-04T07:18:48.326Z,14.50
2019-04-04T07:21:19.813Z,15.10
2019-04-04T07:23:46.116Z,16.33
2019-04-04T07:26:14.972Z,15.83
2019-04-04T07:28:43.028Z,16.13
2019-04-04T07:31:11.119Z,16.90
2019-04-04T07:33:42.591Z,15.70
2019-04-04T07:36:08.939Z,18.13
2019-04-04T07:38:36.784Z,17.87
2019-04-04T07:41:06.092Z,12.30
2019-04-04T07:43:35.718Z,13.00
2019-04-04T07:46:15.568Z,13.63
2019-04-04T07:48:34.103Z,14.43
2019-04-04T07:51:02.008Z,15.23
2019-04-04T07:53:29.924Z,17.53
2019-04-04T07:55:58.384Z,10.77
2019-04-04T07:58:26.244Z,12.93
2019-04-04T08:00:54.209Z,23.43
2019-04-04T08:03:22.014Z,14.77
2019-04-04T08:05:50.166Z,17.50
2019-04-04T08:08:18.183Z,14.23
2019-04-04T08:10:46.146Z,12.63
2019-04-04T08:13:14.042Z,12.90
2019-04-04T08:15:45.711Z,18.00
2019-04-04T08:18:13.744Z,15.90
2019-04-04T08:20:41.659Z,13.60
2019-04-04T08:23:09.688Z,14.20
2019-04-04T08:25:37.557Z,18.60
2019-04-04T08:28:05.563Z,15.33
2019-04-04T08:30:33.542Z,8.90
2019-04-04T08:33:01.407Z,11.40
2019-04-04T08:35:29.522Z,15.17
2019-04-04T08:37:57.380Z,16.03
2019-04-04T08:40:25.823Z,18.87
2019-04-04T08:42:53.829Z,12.37
2019-04-04T08:45:22.350Z,12.33
2019-04-04T08:47:50.234Z,13.20
2019-04-04T08:50:18.173Z,10.70
2019-04-04T08:52:46.047Z,14.03
2019-04-04T08:55:14.774Z,12.43
2019-04-04T08:57:42.646Z,15.07
2019-04-04T09:00:10.670Z,13.50
2019-04-04T09:02:38.678Z,12.30
2019-04-04T09:05:12.137Z,12.03
2019-04-04T09:07:36.583Z,14.97
2019-04-04T09:10:05.270Z,11.97
2019-04-04T09:12:33.143Z,10.33
2019-04-04T09:15:01.499Z,14.80
2019-04-04T09:17:38.884Z,10.60
2019-04-04T09:20:09.445Z,12.60
2019-04-04T09:22:37.047Z,13.90
2019-04-04T09:25:06.164Z,20.23
2019-04-04T09:27:34.201Z,11.80
2019-04-04T09:30:02.428Z,12.03
2019-04-04T09:32:30.349Z,13.93
2019-04-04T09:34:58.393Z,11.30
2019-04-04T09:37:26.309Z,10.63
2019-04-04T09:39:54.080Z,15.77
2019-04-04T09:42:22.131Z,17.60
2019-04-04T09:44:51.854Z,10.07
2019-04-04T09:47:19.979Z,10.07
2019-04-04T09:49:48.380Z,8.60
2019-04-04T09:52:16.341Z,30.10
2019-04-04T09:54:44.368Z,17.80
2019-04-04T09:57:12.296Z,9.60
2019-04-04T09:59:40.175Z,14.50
2019-04-04T10:02:08.304Z,14.87
2019-04-04T10:04:36.201Z,15.90
2019-04-04T10:07:04.254Z,21.03
2019-04-04T10:09:32.267Z,14.13
2019-04-04T10:12:00.306Z,12.70
2019-04-04T10:14:28.126Z,12.80
2019-04-04T10:16:56.592Z,11.47
2019-04-04T10:19:24.386Z,20.20
2019-04-04T10:21:52.304Z,13.10
2019-04-04T10:24:20.223Z,11.10
2019-04-04T10:26:48.242Z,10.57
2019-04-04T10:29:16.203Z,12.70
2019-04-04T10:31:45.345Z,9.37
2019-04-04T10:34:13.271Z,12.80
2019-04-04T10:36:41.186Z,12.93
2019-04-04T10:39:12.049Z,10.10
2019-04-04T10:41:41.334Z,8.77
2019-04-04T10:44:09.322Z,13.90
2019-04-04T10:46:37.841Z,10.73
2019-04-04T10:49:08.252Z,12.80
2019-04-04T10:51:35.478Z,14.07
2019-04-04T10:54:03.370Z,10.17
2019-04-04T10:56:31.293Z,9.77
2019-04-04T10:58:59.255Z,9.63
2019-04-04T11:01:27.211Z,12.13
2019-04-04T11:03:55.234Z,8.33
2019-04-04T11:06:23.099Z,9.17
2019-04-04T11:08:51.237Z,7.93
2019-04-04T11:11:18.996Z,6.90
2019-04-04T11:13:47.817Z,14.70
2019-04-04T11:16:15.775Z,10.23
2019-04-04T11:18:43.594Z,12.00
2019-04-04T11:21:12.085Z,8.53
2019-04-04T11:23:39.901Z,13.27
2019-04-04T11:26:08.364Z,8.83
2019-04-04T11:28:36.271Z,9.40
2019-04-04T11:31:04.202Z,7.93
2019-04-04T11:33:32.035Z,8.33
2019-04-04T11:35:59.956Z,8.77
2019-04-04T11:38:27.995Z,8.93
2019-04-04T11:40:55.883Z,12.63
2019-04-04T11:43:23.699Z,12.07
2019-04-04T11:45:51.690Z,7.43
2019-04-04T11:48:19.640Z,12.40
2019-04-04T11:50:47.422Z,8.37
2019-04-04T11:53:17.543Z,10.20
2019-04-04T11:55:45.404Z,6.43
2019-04-04T11:58:13.331Z,10.03
2019-04-04T12:00:43.899Z,8.77
2019-04-04T12:03:11.744Z,12.23
2019-04-04T12:05:39.606Z,9.33
2019-04-04T12:08:07.538Z,10.13
2019-04-04T12:10:36.563Z,7.97
2019-04-04T12:13:04.582Z,7.37
2019-04-04T12:15:32.475Z,8.93
2019-04-04T12:18:00.498Z,6.13
2019-04-04T12:20:28.462Z,9.73
2019-04-04T12:22:56.407Z,6.40
2019-04-04T12:25:24.791Z,9.50
2019-04-04T12:27:53.408Z,9.03
2019-04-04T12:30:21.482Z,8.90
2019-04-04T12:32:51.132Z,13.20
2019-04-04T12:35:19.071Z,9.40
2019-04-04T12:37:47.522Z,8.03
2019-04-04T12:40:20.863Z,10.50
2019-04-04T12:42:46.255Z,18.03
2019-04-04T12:45:14.286Z,7.10
2019-04-04T12:47:42.423Z,9.27
2019-04-04T12:50:12.212Z,9.23
2019-04-04T12:52:40.259Z,11.50
2019-04-04T12:55:10.171Z,8.30
2019-04-04T12:57:38.175Z,6.70
2019-04-04T13:00:06.975Z,12.87
2019-04-04T13:02:34.740Z,6.53
2019-04-04T13:05:02.911Z,19.03
2019-04-04T13:07:30.915Z,5.70
2019-04-04T13:10:10.927Z,5.77
2019-04-04T13:12:29.273Z,12.43
2019-04-04T13:14:57.099Z,9.07
2019-04-04T13:17:24.888Z,5.87
2019-04-04T13:19:52.797Z,6.53
2019-04-04T13:22:21.004Z,7.97
2019-04-04T13:24:49.841Z,8.70
2019-04-04T13:27:17.939Z,8.90
2019-04-04T13:29:45.985Z,11.30
2019-04-04T13:32:13.909Z,7.20
2019-04-04T13:34:41.926Z,9.30
2019-04-04T13:37:09.909Z,12.57
2019-04-04T13:39:37.940Z,7.57
2019-04-04T13:42:05.922Z,6.10
2019-04-04T13:44:33.767Z,8.93
2019-04-04T13:47:03.175Z,6.83
2019-04-04T13:49:31.389Z,11.30
2019-04-04T13:51:59.188Z,6.93
2019-04-04T13:54:27.177Z,7.50
2019-04-04T13:56:54.981Z,7.13
2019-04-04T13:59:22.920Z,6.23
2019-04-04T14:01:50.928Z,7.23
2019-04-04T14:04:20.291Z,12.53
2019-04-04T14:06:48.713Z,5.63
2019-04-04T14:09:16.560Z,6.77
2019-04-04T14:11:44.470Z,7.77
2019-04-04T14:14:12.347Z,11.23
2019-04-04T14:16:40.254Z,9.53
2019-04-04T14:19:08.317Z,9.63
2019-04-04T14:21:36.346Z,7.83
2019-04-04T14:24:12.971Z,7.63
2019-04-04T14:26:34.104Z,11.27
2019-04-04T14:29:05.830Z,9.50
2019-04-04T14:31:33.750Z,9.97
2019-04-04T14:34:01.647Z,7.60
2019-04-04T14:36:29.624Z,8.20
2019-04-04T14:38:57.602Z,7.53
2019-04-04T14:41:25.992Z,5.63
2019-04-04T14:43:53.845Z,11.10
2019-04-04T14:46:21.727Z,5.33
2019-04-04T14:48:50.200Z,9.83
2019-04-04T14:51:18.109Z,13.10
2019-04-04T14:53:46.084Z,7.80
2019-04-04T14:56:13.941Z,9.77
2019-04-04T14:58:41.743Z,6.43
2019-04-04T15:01:09.687Z,8.17
2019-04-04T15:03:37.931Z,6.23
2019-04-04T15:06:05.996Z,9.37
2019-04-04T15:08:33.765Z,8.00
2019-04-04T15:11:01.609Z,9.40
2019-04-04T15:13:29.585Z,9.37
2019-04-04T15:16:28.847Z,7.80
2019-04-04T15:18:56.823Z,10.30
2019-04-04T15:21:24.797Z,8.50
2019-04-04T15:23:52.586Z,9.47
2019-04-04T15:26:20.923Z,5.93
2019-04-04T15:28:48.909Z,8.10
2019-04-04T15:31:17.163Z,13.30
2019-04-04T15:33:45.050Z,8.97
2019-04-04T15:36:13.059Z,8.43
2019-04-04T15:38:40.835Z,9.83
2019-04-04T15:41:08.780Z,10.63
2019-04-04T15:43:37.374Z,8.70
2019-04-04T15:46:05.374Z,8.33
2019-04-04T15:48:33.245Z,9.27
2019-04-04T15:51:01.212Z,10.23
2019-04-04T15:53:28.990Z,10.47
2019-04-04T15:55:56.932Z,8.63
2019-04-04T15:58:24.730Z,7.37
2019-04-04T16:00:52.689Z,10.23
2019-04-04T16:03:20.588Z,7.87
2019-04-04T16:05:48.464Z,10.63
2019-04-04T16:08:16.353Z,8.90
2019-04-04T16:10:44.392Z,10.17
2019-04-04T16:13:12.372Z,11.00
2019-04-04T16:15:40.364Z,7.97
2019-04-04T16:18:08.279Z,9.30
2019-04-04T16:20:36.313Z,10.67
2019-04-04T16:23:05.031Z,7.70
2019-04-04T16:25:33.121Z,10.57
2019-04-04T16:28:01.016Z,7.03
2019-04-04T16:30:29.195Z,7.97
2019-04-04T16:32:57.438Z,5.97
2019-04-04T16:35:25.467Z,9.73
2019-04-04T16:37:53.368Z,9.20
2019-04-04T16:40:21.590Z,6.37
2019-04-04T16:42:50.078Z,9.63
2019-04-04T16:45:18.146Z,9.47
2019-04-04T16:47:46.129Z,13.23
2019-04-04T16:50:14.522Z,8.80
2019-04-04T16:52:42.479Z,13.97
2019-04-04T16:55:10.477Z,11.60
2019-04-04T16:57:38.445Z,13.23
2019-04-04T17:00:07.571Z,10.00
2019-04-04T17:02:35.720Z,8.77
2019-04-04T17:05:11.383Z,8.77
2019-04-04T17:07:40.670Z,9.33
2019-04-04T17:10:09.758Z,9.17
2019-04-04T17:12:37.798Z,9.17
2019-04-04T17:15:06.892Z,11.83
2019-04-04T17:17:34.890Z,21.77
2019-04-04T17:20:02.998Z,22.67
2019-04-04T17:22:31.155Z,22.67
2019-04-04T17:24:59.287Z,20.17
2019-04-04T17:27:27.133Z,17.67
2019-04-04T17:29:55.012Z,21.53
2019-04-04T17:32:23.592Z,14.83
2019-04-04T17:34:51.708Z,15.57
2019-04-04T17:37:20.103Z,19.70
2019-04-04T17:39:48.164Z,19.03
2019-04-04T17:42:28.132Z,17.40
2019-04-04T17:44:45.894Z,18.60
2019-04-04T17:47:14.604Z,12.53
2019-04-04T17:49:43.258Z,13.07
2019-04-04T17:52:11.644Z,13.80
2019-04-04T17:54:39.605Z,20.37
2019-04-04T17:57:07.418Z,17.33
2019-04-04T17:59:35.414Z,22.07
2019-04-04T18:02:03.567Z,20.73
2019-04-04T18:04:31.358Z,14.80
2019-04-04T18:07:01.360Z,18.43
2019-04-04T18:09:32.048Z,13.87
2019-04-04T18:11:59.491Z,17.27
2019-04-04T18:14:27.383Z,19.77
2019-04-04T18:16:55.195Z,19.53
2019-04-04T18:19:23.498Z,21.90
2019-04-04T18:21:51.535Z,22.40
2019-04-04T18:24:19.538Z,17.63
2019-04-04T18:26:47.538Z,26.03
2019-04-04T18:29:15.545Z,22.63
2019-04-04T18:31:43.600Z,14.03
2019-04-04T18:34:12.036Z,10.27
2019-04-04T18:36:40.520Z,12.03
2019-04-04T18:39:08.532Z,14.03
2019-04-04T18:41:36.493Z,13.47
2019-04-04T18:44:04.528Z,12.40
2019-04-04T18:46:32.625Z,14.07
2019-04-04T18:49:00.534Z,15.07
2019-04-04T18:51:28.412Z,12.70
2019-04-04T18:53:56.445Z,17.30
2019-04-04T18:56:24.314Z,13.47
2019-04-04T18:58:52.149Z,15.67
2019-04-04T19:02:21.690Z,57.80
2019-04-04T19:04:49.540Z,18.47
2019-04-04T19:07:18.204Z,17.53
2019-04-04T19:09:57.119Z,21.37
2019-04-04T19:12:25.231Z,24.43
2019-04-04T19:14:53.014Z,21.00
2019-04-04T19:17:21.055Z,32.53
2019-04-04T19:19:49.079Z,17.17
2019-04-04T19:22:17.012Z,17.30
2019-04-04T19:24:44.903Z,20.73
2019-04-04T19:27:12.913Z,20.57
2019-04-04T19:29:40.845Z,16.43
2019-04-04T19:32:08.777Z,14.60
2019-04-04T19:34:36.753Z,18.00
2019-04-04T19:37:04.769Z,19.13
2019-04-04T19:39:32.837Z,26.13
2019-04-04T19:42:00.746Z,22.17
2019-04-04T19:44:28.773Z,22.77
2019-04-04T19:46:56.881Z,41.53
2019-04-04T19:49:24.845Z,45.40
2019-04-04T19:51:52.877Z,46.87
2019-04-04T19:54:20.942Z,31.03
2019-04-04T19:56:48.940Z,26.23
2019-04-04T19:59:17.116Z,20.03
2019-04-04T20:01:45.192Z,17.87
2019-04-04T20:04:13.053Z,13.07
2019-04-04T20:06:40.867Z,14.57
2019-04-04T20:09:08.835Z,18.90
2019-04-04T20:11:36.857Z,16.33
2019-04-04T20:14:04.915Z,17.37
2019-04-04T20:16:32.987Z,19.20
2019-04-04T20:19:01.027Z,15.90
2019-04-04T20:21:28.918Z,17.87
2019-04-04T20:23:56.790Z,16.27
2019-04-04T20:26:25.214Z,21.80
2019-04-04T20:28:53.156Z,18.63
2019-04-04T20:31:21.084Z,20.10
2019-04-04T20:34:01.031Z,19.00
2019-04-04T20:36:20.713Z,15.00
2019-04-04T20:38:48.668Z,19.87
2019-04-04T20:41:16.784Z,14.93
2019-04-04T20:43:44.978Z,17.20
2019-04-04T20:46:13.151Z,15.30
2019-04-04T20:48:41.638Z,19.80
2019-04-04T20:51:10.649Z,16.30
2019-04-04T20:53:38.761Z,16.13
2019-04-04T20:56:06.781Z,15.30
2019-04-04T20:58:36.246Z,14.50
2019-04-04T21:01:04.312Z,17.33
2019-04-04T21:03:32.358Z,17.83
2019-04-04T21:06:00.389Z,15.43
2019-04-04T21:08:28.459Z,14.90
2019-04-04T21:10:56.370Z,16.87
2019-04-04T21:13:24.338Z,21.90
2019-04-04T21:15:52.152Z,15.33
2019-04-04T21:18:20.103Z,18.37
2019-04-04T21:20:47.988Z,18.27
2019-04-04T21:23:15.980Z,15.43
2019-04-04T21:25:43.960Z,14.00
2019-04-04T21:28:11.888Z,17.63
2019-04-04T21:30:39.833Z,16.10
2019-04-04T21:33:07.766Z,19.33
2019-04-04T21:35:35.904Z,15.93
2019-04-04T21:38:04.022Z,18.30
2019-04-04T21:40:32.022Z,13.60
2019-04-04T21:42:59.797Z,16.03
2019-04-04T21:45:29.633Z,13.97
2019-04-04T21:47:57.730Z,14.83
2019-04-04T21:50:25.706Z,17.90
2019-04-04T21:52:53.626Z,15.93
2019-04-04T21:55:21.614Z,15.23
2019-04-04T21:57:50.629Z,13.83
2019-04-04T22:00:20.291Z,17.17
2019-04-04T22:02:48.549Z,18.10
2019-04-04T22:05:16.658Z,19.37
2019-04-04T22:07:44.549Z,19.07
2019-04-04T22:10:12.729Z,16.30
2019-04-04T22:12:40.763Z,20.90
2019-04-04T22:15:09.017Z,18.03
2019-04-04T22:17:37.016Z,22.10
2019-04-04T22:20:05.299Z,20.10
2019-04-04T22:22:33.129Z,19.87
2019-04-04T22:25:01.017Z,24.13
2019-04-04T22:27:28.915Z,21.07
2019-04-04T22:29:56.859Z,20.90
2019-04-04T22:32:24.778Z,21.80
2019-04-04T22:34:52.741Z,22.27
2019-04-04T22:37:20.712Z,24.30
2019-04-04T22:39:48.774Z,20.23
2019-04-04T22:42:16.773Z,20.53
2019-04-04T22:44:44.671Z,21.53
2019-04-04T22:47:12.550Z,20.60
2019-04-04T22:49:40.602Z,20.03
2019-04-04T22:52:08.408Z,21.57
2019-04-04T22:54:36.392Z,27.40
2019-04-04T22:57:04.444Z,26.53
2019-04-04T22:59:32.291Z,19.07
2019-04-04T23:02:00.366Z,20.47
2019-04-04T23:04:28.372Z,21.97
2019-04-04T23:06:56.228Z,20.57
2019-04-04T23:09:24.526Z,21.83
2019-04-04T23:11:52.546Z,19.17
2019-04-04T23:14:20.580Z,20.00
2019-04-04T23:16:48.730Z,19.43
2019-04-04T23:19:16.660Z,20.33
2019-04-04T23:21:45.337Z,22.10
2019-04-04T23:24:13.378Z,22.03
2019-04-04T23:26:41.351Z,23.67
2019-04-04T23:29:09.265Z,21.07
2019-04-04T23:31:37.110Z,24.10
2019-04-04T23:34:05.224Z,24.40
2019-04-04T23:36:35.185Z,21.10
2019-04-04T23:39:04.083Z,20.17
2019-04-04T23:41:32.017Z,22.50
2019-04-04T23:43:59.849Z,22.57
2019-04-04T23:46:27.808Z,24.03
2019-04-04T23:48:56.210Z,19.47
2019-04-04T23:51:24.154Z,22.43
2019-04-04T23:53:52.223Z,22.40
2019-04-04T23:56:20.088Z,22.10
2019-04-04T23:58:48.947Z,22.63
